sensor_id;sensor_type;location;lat;lon;timestamp;pressure;altitude;pressure_sealevel;temperature;humidity
77517;BME280;66628;53.946;27.634;2023-01-23T00:00:17;100744.093750;;;18.299999;29.839844
77517;BME280;66628;53.946;27.634;2023-01-23T00:01:18;100741.359375;;;18.299999;29.583008
77517;BME280;66628;53.946;27.634;2023-01-23T00:02:16;100734.921875;;;18.309999;29.818359
77517;BME280;66628;53.946;27.634;2023-01-23T00:03:16;100736.609375;;;18.320000;29.785156
77517;BME280;66628;53.946;27.634;2023-01-23T00:04:16;100733.109375;;;18.320000;29.740234
77517;BME280;66628;53.946;27.634;2023-01-23T00:05:17;100732.085938;;;18.290001;29.615234
77517;BME280;66628;53.946;27.634;2023-01-23T00:06:16;100729.882812;;;18.260000;29.948242
77517;BME280;66628;53.946;27.634;2023-01-23T00:07:16;100734.109375;;;18.379999;30.224609
77517;BME280;66628;53.946;27.634;2023-01-23T00:08:17;100733.937500;;;18.480000;30.331055
77517;BME280;66628;53.946;27.634;2023-01-23T00:09:17;100732.406250;;;18.570000;30.459961
77517;BME280;66628;53.946;27.634;2023-01-23T00:10:17;100735.734375;;;18.670000;30.556641
77517;BME280;66628;53.946;27.634;2023-01-23T00:11:18;100735.312500;;;18.760000;30.506836
77517;BME280;66628;53.946;27.634;2023-01-23T00:12:17;100735.718750;;;18.830000;30.500977
77517;BME280;66628;53.946;27.634;2023-01-23T00:13:17;100736.109375;;;18.889999;30.449219
77517;BME280;66628;53.946;27.634;2023-01-23T00:14:16;100739.429688;;;18.959999;30.398438
77517;BME280;66628;53.946;27.634;2023-01-23T00:15:16;100740.171875;;;19.020000;30.435547
77517;BME280;66628;53.946;27.634;2023-01-23T00:16:18;100738.906250;;;19.070000;30.338867
77517;BME280;66628;53.946;27.634;2023-01-23T00:17:17;100741.109375;;;19.120001;30.275391
77517;BME280;66628;53.946;27.634;2023-01-23T00:18:16;100740.359375;;;19.170000;30.234375
77517;BME280;66628;53.946;27.634;2023-01-23T00:19:16;100741.468750;;;19.209999;30.236328
77517;BME280;66628;53.946;27.634;2023-01-23T00:20:16;100742.468750;;;19.260000;30.195312
77517;BME280;66628;53.946;27.634;2023-01-23T00:21:18;100743.445312;;;19.290001;30.152344
77517;BME280;66628;53.946;27.634;2023-01-23T00:22:16;100739.656250;;;19.320000;30.199219
77517;BME280;66628;53.946;27.634;2023-01-23T00:23:17;100739.031250;;;19.350000;30.189453
77517;BME280;66628;53.946;27.634;2023-01-23T00:24:16;100739.062500;;;19.379999;30.192383
77517;BME280;66628;53.946;27.634;2023-01-23T00:25:17;100743.546875;;;19.410000;30.161133
77517;BME280;66628;53.946;27.634;2023-01-23T00:26:17;100742.710938;;;19.440001;30.118164
77517;BME280;66628;53.946;27.634;2023-01-23T00:27:16;100741.812500;;;19.459999;30.186523
77517;BME280;66628;53.946;27.634;2023-01-23T00:28:16;100738.750000;;;19.480000;30.121094
77517;BME280;66628;53.946;27.634;2023-01-23T00:29:16;100739.250000;;;19.510000;30.133789
77517;BME280;66628;53.946;27.634;2023-01-23T00:30:16;100735.609375;;;19.520000;30.235352
77517;BME280;66628;53.946;27.634;2023-01-23T00:31:18;100738.609375;;;19.540001;30.214844
77517;BME280;66628;53.946;27.634;2023-01-23T00:32:16;100734.976562;;;19.570000;30.171875
77517;BME280;66628;53.946;27.634;2023-01-23T00:33:16;100737.390625;;;19.580000;30.194336
77517;BME280;66628;53.946;27.634;2023-01-23T00:34:16;100737.859375;;;19.590000;30.240234
77517;BME280;66628;53.946;27.634;2023-01-23T00:35:16;100735.500000;;;19.610001;30.218750
77517;BME280;66628;53.946;27.634;2023-01-23T00:36:16;100737.164062;;;19.629999;30.354492
77517;BME280;66628;53.946;27.634;2023-01-23T00:37:16;100740.390625;;;19.650000;30.232422
77517;BME280;66628;53.946;27.634;2023-01-23T00:38:16;100742.328125;;;19.660000;30.234375
77517;BME280;66628;53.946;27.634;2023-01-23T00:39:18;100741.531250;;;19.680000;30.257812
77517;BME280;66628;53.946;27.634;2023-01-23T00:40:16;100744.593750;;;19.700001;30.281250
77517;BME280;66628;53.946;27.634;2023-01-23T00:41:16;100745.203125;;;19.709999;30.214844
77517;BME280;66628;53.946;27.634;2023-01-23T00:42:16;100746.078125;;;19.719999;30.260742
77517;BME280;66628;53.946;27.634;2023-01-23T00:43:16;100743.781250;;;19.730000;30.205078
77517;BME280;66628;53.946;27.634;2023-01-23T00:44:16;100743.015625;;;19.740000;30.373047
77517;BME280;66628;53.946;27.634;2023-01-23T00:45:17;100743.687500;;;19.750000;30.206055
77517;BME280;66628;53.946;27.634;2023-01-23T00:46:17;100742.968750;;;19.750000;30.329102
77517;BME280;66628;53.946;27.634;2023-01-23T00:47:16;100744.156250;;;19.770000;30.207031
77517;BME280;66628;53.946;27.634;2023-01-23T00:48:16;100747.976562;;;19.790001;30.219727
77517;BME280;66628;53.946;27.634;2023-01-23T00:49:16;100744.539062;;;19.790001;30.264648
77517;BME280;66628;53.946;27.634;2023-01-23T00:50:16;100744.914062;;;19.799999;30.298828
77517;BME280;66628;53.946;27.634;2023-01-23T00:51:16;100744.765625;;;19.820000;30.244141
77517;BME280;66628;53.946;27.634;2023-01-23T00:52:16;100740.218750;;;19.820000;30.222656
77517;BME280;66628;53.946;27.634;2023-01-23T00:53:16;100743.843750;;;19.840000;30.234375
77517;BME280;66628;53.946;27.634;2023-01-23T00:54:16;100742.812500;;;19.850000;30.268555
77517;BME280;66628;53.946;27.634;2023-01-23T00:55:16;100743.398438;;;19.860001;30.313477
77517;BME280;66628;53.946;27.634;2023-01-23T00:56:16;100742.609375;;;19.870001;30.360352
77517;BME280;66628;53.946;27.634;2023-01-23T00:57:16;100741.296875;;;19.879999;30.382812
77517;BME280;66628;53.946;27.634;2023-01-23T00:58:16;100742.757812;;;19.900000;30.451172
77517;BME280;66628;53.946;27.634;2023-01-23T00:59:16;100745.054688;;;19.910000;30.452148
77517;BME280;66628;53.946;27.634;2023-01-23T01:00:17;100748.375000;;;19.920000;30.453125
77517;BME280;66628;53.946;27.634;2023-01-23T01:01:17;100748.523438;;;19.920000;30.453125
77517;BME280;66628;53.946;27.634;2023-01-23T01:02:16;100748.757812;;;19.930000;30.499023
77517;BME280;66628;53.946;27.634;2023-01-23T01:03:16;100750.914062;;;19.940001;30.533203
77517;BME280;66628;53.946;27.634;2023-01-23T01:04:16;100752.171875;;;19.959999;30.579102
77517;BME280;66628;53.946;27.634;2023-01-23T01:05:16;100752.656250;;;19.969999;30.500977
77517;BME280;66628;53.946;27.634;2023-01-23T01:06:16;100749.687500;;;19.980000;30.557617
77517;BME280;66628;53.946;27.634;2023-01-23T01:07:16;100754.320312;;;20.000000;30.570312
77517;BME280;66628;53.946;27.634;2023-01-23T01:08:16;100751.109375;;;20.000000;30.547852
77517;BME280;66628;53.946;27.634;2023-01-23T01:09:16;100754.789062;;;20.010000;30.604492
77517;BME280;66628;53.946;27.634;2023-01-23T01:10:16;100752.718750;;;20.010000;30.616211
77517;BME280;66628;53.946;27.634;2023-01-23T01:11:17;100753.765625;;;20.030001;30.617188
77517;BME280;66628;53.946;27.634;2023-01-23T01:12:16;100753.843750;;;20.030001;30.639648
77517;BME280;66628;53.946;27.634;2023-01-23T01:13:17;100751.046875;;;20.040001;30.640625
77517;BME280;66628;53.946;27.634;2023-01-23T01:14:17;100751.546875;;;20.049999;30.574219
77517;BME280;66628;53.946;27.634;2023-01-23T01:15:16;100748.921875;;;20.049999;30.674805
77517;BME280;66628;53.946;27.634;2023-01-23T01:16:16;100746.062500;;;20.070000;30.687500
77517;BME280;66628;53.946;27.634;2023-01-23T01:17:16;100747.515625;;;20.070000;30.698242
77517;BME280;66628;53.946;27.634;2023-01-23T01:18:17;100748.710938;;;20.080000;30.777344
77517;BME280;66628;53.946;27.634;2023-01-23T01:19:16;100745.914062;;;20.090000;30.755859
77517;BME280;66628;53.946;27.634;2023-01-23T01:20:16;100750.171875;;;20.100000;30.689453
77517;BME280;66628;53.946;27.634;2023-01-23T01:21:16;100751.304688;;;20.100000;30.734375
77517;BME280;66628;53.946;27.634;2023-01-23T01:22:16;100752.468750;;;20.110001;30.779297
77517;BME280;66628;53.946;27.634;2023-01-23T01:23:16;100753.578125;;;20.110001;30.712891
77517;BME280;66628;53.946;27.634;2023-01-23T01:24:16;100757.664062;;;20.120001;30.735352
77517;BME280;66628;53.946;27.634;2023-01-23T01:25:17;100753.664062;;;20.120001;30.735352
77517;BME280;66628;53.946;27.634;2023-01-23T01:26:16;100756.929688;;;20.129999;30.725586
77517;BME280;66628;53.946;27.634;2023-01-23T01:27:16;100756.984375;;;20.139999;30.725586
77517;BME280;66628;53.946;27.634;2023-01-23T01:28:16;100758.703125;;;20.139999;30.759766
77517;BME280;66628;53.946;27.634;2023-01-23T01:29:16;100757.953125;;;20.150000;30.737305
77517;BME280;66628;53.946;27.634;2023-01-23T01:30:17;100757.484375;;;20.160000;30.715820
77517;BME280;66628;53.946;27.634;2023-01-23T01:31:16;100759.000000;;;20.160000;30.738281
77517;BME280;66628;53.946;27.634;2023-01-23T01:32:16;100760.343750;;;20.160000;30.727539
77517;BME280;66628;53.946;27.634;2023-01-23T01:33:16;100756.687500;;;20.170000;30.772461
77517;BME280;66628;53.946;27.634;2023-01-23T01:34:16;100760.890625;;;20.180000;30.818359
77517;BME280;66628;53.946;27.634;2023-01-23T01:35:16;100762.078125;;;20.190001;30.851562
77517;BME280;66628;53.946;27.634;2023-01-23T01:36:18;100764.125000;;;20.190001;30.885742
77517;BME280;66628;53.946;27.634;2023-01-23T01:37:16;100765.468750;;;20.200001;30.819336
77517;BME280;66628;53.946;27.634;2023-01-23T01:38:16;100769.195312;;;20.209999;30.864258
77517;BME280;66628;53.946;27.634;2023-01-23T01:39:16;100772.281250;;;20.219999;30.887695
77517;BME280;66628;53.946;27.634;2023-01-23T01:40:18;100769.546875;;;20.219999;30.876953
77517;BME280;66628;53.946;27.634;2023-01-23T01:41:16;100768.375000;;;20.219999;30.932617
77517;BME280;66628;53.946;27.634;2023-01-23T01:42:16;100772.140625;;;20.240000;30.956055
77517;BME280;66628;53.946;27.634;2023-01-23T01:43:18;100771.031250;;;20.240000;31.001953
77517;BME280;66628;53.946;27.634;2023-01-23T01:44:17;100769.718750;;;20.270000;30.880859
77517;BME280;66628;53.946;27.634;2023-01-23T01:47:16;100767.984375;;;20.280001;30.903320
77517;BME280;66628;53.946;27.634;2023-01-23T01:48:16;100767.984375;;;20.280001;30.936523
77517;BME280;66628;53.946;27.634;2023-01-23T01:50:16;100769.625000;;;20.290001;31.004883
77517;BME280;66628;53.946;27.634;2023-01-23T01:52:16;100774.257812;;;20.299999;30.971680
77517;BME280;66628;53.946;27.634;2023-01-23T01:53:16;100772.765625;;;20.309999;30.916992
77517;BME280;66628;53.946;27.634;2023-01-23T01:55:16;100777.429688;;;20.320000;30.984375
77517;BME280;66628;53.946;27.634;2023-01-23T01:56:16;100777.484375;;;20.320000;31.029297
77517;BME280;66628;53.946;27.634;2023-01-23T01:58:16;100774.281250;;;20.330000;30.997070
77517;BME280;66628;53.946;27.634;2023-01-23T01:59:17;100774.828125;;;20.340000;30.997070
77517;BME280;66628;53.946;27.634;2023-01-23T02:00:16;100773.843750;;;20.340000;31.086914
77517;BME280;66628;53.946;27.634;2023-01-23T02:01:16;100771.218750;;;20.340000;31.019531
77517;BME280;66628;53.946;27.634;2023-01-23T02:02:18;100773.140625;;;20.350000;31.109375
77517;BME280;66628;53.946;27.634;2023-01-23T02:03:16;100773.343750;;;20.360001;31.042969
77517;BME280;66628;53.946;27.634;2023-01-23T02:04:16;100768.617188;;;20.360001;30.987305
77517;BME280;66628;53.946;27.634;2023-01-23T02:05:27;100769.484375;;;20.360001;31.021484
77517;BME280;66628;53.946;27.634;2023-01-23T02:06:17;100768.093750;;;20.360001;31.021484
77517;BME280;66628;53.946;27.634;2023-01-23T02:07:26;100767.968750;;;20.360001;30.964844
77517;BME280;66628;53.946;27.634;2023-01-23T02:09:34;100769.523438;;;20.350000;30.830078
77517;BME280;66628;53.946;27.634;2023-01-23T02:10:16;100771.679688;;;20.340000;30.818359
77517;BME280;66628;53.946;27.634;2023-01-23T02:11:16;100772.382812;;;20.340000;30.795898
77517;BME280;66628;53.946;27.634;2023-01-23T02:12:16;100772.554688;;;20.340000;30.739258
77517;BME280;66628;53.946;27.634;2023-01-23T02:14:16;100775.703125;;;20.340000;30.661133
77517;BME280;66628;53.946;27.634;2023-01-23T02:15:17;100775.968750;;;20.360001;30.651367
77517;BME280;66628;53.946;27.634;2023-01-23T02:16:17;100778.000000;;;20.360001;30.640625
77517;BME280;66628;53.946;27.634;2023-01-23T02:17:16;100779.984375;;;20.370001;30.640625
77517;BME280;66628;53.946;27.634;2023-01-23T02:18:16;100781.234375;;;20.379999;30.686523
77517;BME280;66628;53.946;27.634;2023-01-23T02:20:21;100779.781250;;;20.389999;30.709961
77517;BME280;66628;53.946;27.634;2023-01-23T02:21:19;100778.320312;;;20.389999;30.743164
77517;BME280;66628;53.946;27.634;2023-01-23T02:22:42;100780.734375;;;20.410000;30.710938
77517;BME280;66628;53.946;27.634;2023-01-23T02:23:23;100780.328125;;;20.410000;30.733398
77517;BME280;66628;53.946;27.634;2023-01-23T02:24:22;100778.875000;;;20.420000;30.733398
77517;BME280;66628;53.946;27.634;2023-01-23T02:26:17;100782.859375;;;20.430000;30.745117
77517;BME280;66628;53.946;27.634;2023-01-23T02:27:16;100781.640625;;;20.430000;30.756836
77517;BME280;66628;53.946;27.634;2023-01-23T02:28:16;100779.304688;;;20.440001;30.791016
77517;BME280;66628;53.946;27.634;2023-01-23T02:29:16;100777.031250;;;20.440001;30.825195
77517;BME280;66628;53.946;27.634;2023-01-23T02:30:16;100777.929688;;;20.450001;30.847656
77517;BME280;66628;53.946;27.634;2023-01-23T02:31:17;100776.179688;;;20.450001;30.836914
77517;BME280;66628;53.946;27.634;2023-01-23T02:32:16;100778.976562;;;20.459999;30.848633
77517;BME280;66628;53.946;27.634;2023-01-23T02:34:16;100775.445312;;;20.469999;30.916016
77517;BME280;66628;53.946;27.634;2023-01-23T02:35:21;100782.859375;;;20.469999;30.894531
77517;BME280;66628;53.946;27.634;2023-01-23T02:36:17;100783.906250;;;20.480000;30.940430
77517;BME280;66628;53.946;27.634;2023-01-23T02:37:16;100781.921875;;;20.490000;30.906250
77517;BME280;66628;53.946;27.634;2023-01-23T02:38:17;100777.742188;;;20.490000;30.962891
77517;BME280;66628;53.946;27.634;2023-01-23T02:39:17;100779.203125;;;20.490000;30.951172
77517;BME280;66628;53.946;27.634;2023-01-23T02:40:16;100777.804688;;;20.490000;30.973633
77517;BME280;66628;53.946;27.634;2023-01-23T02:41:17;100780.656250;;;20.500000;30.941406
77517;BME280;66628;53.946;27.634;2023-01-23T02:42:16;100783.835938;;;20.510000;30.963867
77517;BME280;66628;53.946;27.634;2023-01-23T02:43:17;100780.453125;;;20.520000;30.942383
77517;BME280;66628;53.946;27.634;2023-01-23T02:44:18;100781.671875;;;20.520000;30.930664
77517;BME280;66628;53.946;27.634;2023-01-23T02:45:16;100781.617188;;;20.530001;30.977539
77517;BME280;66628;53.946;27.634;2023-01-23T02:46:16;100782.398438;;;20.530001;30.977539
77517;BME280;66628;53.946;27.634;2023-01-23T02:47:16;100785.960938;;;20.540001;30.932617
77517;BME280;66628;53.946;27.634;2023-01-23T02:48:16;100779.312500;;;20.540001;30.977539
77517;BME280;66628;53.946;27.634;2023-01-23T02:49:16;100776.507812;;;20.549999;30.944336
77517;BME280;66628;53.946;27.634;2023-01-23T02:50:16;100777.148438;;;20.549999;31.000977
77517;BME280;66628;53.946;27.634;2023-01-23T02:51:16;100776.937500;;;20.559999;30.990234
77517;BME280;66628;53.946;27.634;2023-01-23T02:52:16;100775.828125;;;20.570000;30.991211
77517;BME280;66628;53.946;27.634;2023-01-23T02:53:16;100777.695312;;;20.570000;30.945312
77517;BME280;66628;53.946;27.634;2023-01-23T02:54:16;100780.437500;;;20.570000;31.024414
77517;BME280;66628;53.946;27.634;2023-01-23T02:55:16;100778.335938;;;20.570000;30.968750
77517;BME280;66628;53.946;27.634;2023-01-23T02:56:16;100784.492188;;;20.570000;30.991211
77517;BME280;66628;53.946;27.634;2023-01-23T02:57:16;100786.156250;;;20.570000;30.968750
77517;BME280;66628;53.946;27.634;2023-01-23T02:58:16;100788.921875;;;20.580000;30.980469
77517;BME280;66628;53.946;27.634;2023-01-23T02:59:16;100786.468750;;;20.580000;31.025391
77517;BME280;66628;53.946;27.634;2023-01-23T03:00:16;100782.859375;;;20.590000;31.002930
77517;BME280;66628;53.946;27.634;2023-01-23T03:01:17;100784.656250;;;20.590000;31.014648
77517;BME280;66628;53.946;27.634;2023-01-23T03:02:16;100780.929688;;;20.590000;31.015625
77517;BME280;66628;53.946;27.634;2023-01-23T03:03:16;100783.640625;;;20.600000;31.003906
77517;BME280;66628;53.946;27.634;2023-01-23T03:04:16;100785.796875;;;20.600000;31.015625
77517;BME280;66628;53.946;27.634;2023-01-23T03:05:17;100790.343750;;;20.610001;31.027344
77517;BME280;66628;53.946;27.634;2023-01-23T03:06:16;100788.718750;;;20.610001;31.071289
77517;BME280;66628;53.946;27.634;2023-01-23T03:07:16;100790.578125;;;20.610001;31.049805
77517;BME280;66628;53.946;27.634;2023-01-23T03:08:16;100789.296875;;;20.610001;31.004883
77517;BME280;66628;53.946;27.634;2023-01-23T03:09:16;100788.531250;;;20.610001;31.039062
77517;BME280;66628;53.946;27.634;2023-01-23T03:10:16;100790.546875;;;20.620001;31.005859
77517;BME280;66628;53.946;27.634;2023-01-23T03:11:17;100794.281250;;;20.620001;30.950195
77517;BME280;66628;53.946;27.634;2023-01-23T03:12:16;100793.054688;;;20.620001;31.005859
77517;BME280;66628;53.946;27.634;2023-01-23T03:13:16;100789.437500;;;20.629999;31.017578
77517;BME280;66628;53.946;27.634;2023-01-23T03:14:17;100789.320312;;;20.629999;30.972656
77517;BME280;66628;53.946;27.634;2023-01-23T03:15:16;100789.312500;;;20.629999;31.084961
77517;BME280;66628;53.946;27.634;2023-01-23T03:16:16;100786.601562;;;20.639999;31.152344
77517;BME280;66628;53.946;27.634;2023-01-23T03:17:16;100787.828125;;;20.639999;31.152344
77517;BME280;66628;53.946;27.634;2023-01-23T03:18:16;100782.578125;;;20.650000;31.085938
77517;BME280;66628;53.946;27.634;2023-01-23T03:19:16;100783.218750;;;20.639999;31.096680
77517;BME280;66628;53.946;27.634;2023-01-23T03:20:17;100786.953125;;;20.650000;31.141602
77517;BME280;66628;53.946;27.634;2023-01-23T03:21:16;100787.414062;;;20.650000;31.153320
77517;BME280;66628;53.946;27.634;2023-01-23T03:22:16;100784.203125;;;20.660000;31.209961
77517;BME280;66628;53.946;27.634;2023-01-23T03:23:16;100783.671875;;;20.680000;31.267578
77517;BME280;66628;53.946;27.634;2023-01-23T03:24:16;100786.125000;;;20.690001;31.021484
77517;BME280;66628;53.946;27.634;2023-01-23T03:25:16;100784.695312;;;20.680000;30.964844
77517;BME280;66628;53.946;27.634;2023-01-23T03:26:16;100784.140625;;;20.690001;30.988281
77517;BME280;66628;53.946;27.634;2023-01-23T03:27:16;100783.023438;;;20.700001;30.820312
77517;BME280;66628;53.946;27.634;2023-01-23T03:28:16;100783.375000;;;20.690001;30.865234
77517;BME280;66628;53.946;27.634;2023-01-23T03:29:17;100785.304688;;;20.690001;30.898438
77517;BME280;66628;53.946;27.634;2023-01-23T03:30:16;100781.921875;;;20.700001;30.886719
77517;BME280;66628;53.946;27.634;2023-01-23T03:31:16;100781.796875;;;20.700001;30.920898
77517;BME280;66628;53.946;27.634;2023-01-23T03:32:16;100782.937500;;;20.700001;30.887695
77517;BME280;66628;53.946;27.634;2023-01-23T03:33:16;100780.578125;;;20.700001;30.886719
77517;BME280;66628;53.946;27.634;2023-01-23T03:34:16;100780.921875;;;20.690001;30.931641
77517;BME280;66628;53.946;27.634;2023-01-23T03:35:17;100779.343750;;;20.690001;30.954102
77517;BME280;66628;53.946;27.634;2023-01-23T03:36:16;100779.000000;;;20.690001;30.954102
77517;BME280;66628;53.946;27.634;2023-01-23T03:37:16;100782.679688;;;20.680000;30.909180
77517;BME280;66628;53.946;27.634;2023-01-23T03:38:16;100784.953125;;;20.680000;30.987305
77517;BME280;66628;53.946;27.634;2023-01-23T03:39:16;100786.179688;;;20.690001;31.033203
77517;BME280;66628;53.946;27.634;2023-01-23T03:40:17;100789.093750;;;20.690001;30.988281
77517;BME280;66628;53.946;27.634;2023-01-23T03:41:16;100792.890625;;;20.690001;31.010742
77517;BME280;66628;53.946;27.634;2023-01-23T03:42:16;100789.562500;;;20.690001;31.043945
77517;BME280;66628;53.946;27.634;2023-01-23T03:43:16;100790.648438;;;20.680000;31.087891
77517;BME280;66628;53.946;27.634;2023-01-23T03:44:16;100796.601562;;;20.680000;31.076172
77517;BME280;66628;53.946;27.634;2023-01-23T03:45:16;100795.843750;;;20.680000;31.076172
77517;BME280;66628;53.946;27.634;2023-01-23T03:46:16;100797.476562;;;20.680000;31.110352
77517;BME280;66628;53.946;27.634;2023-01-23T03:47:16;100792.867188;;;20.670000;31.233398
77517;BME280;66628;53.946;27.634;2023-01-23T03:48:16;100794.968750;;;20.670000;31.076172
77517;BME280;66628;53.946;27.634;2023-01-23T03:49:16;100790.921875;;;20.650000;31.074219
77517;BME280;66628;53.946;27.634;2023-01-23T03:50:16;100790.976562;;;20.650000;31.130859
77517;BME280;66628;53.946;27.634;2023-01-23T03:51:16;100791.031250;;;20.650000;31.164062
77517;BME280;66628;53.946;27.634;2023-01-23T03:52:16;100793.421875;;;20.650000;31.120117
77517;BME280;66628;53.946;27.634;2023-01-23T03:53:16;100792.203125;;;20.650000;31.220703
77517;BME280;66628;53.946;27.634;2023-01-23T03:54:16;100793.835938;;;20.650000;31.208984
77517;BME280;66628;53.946;27.634;2023-01-23T03:55:16;100794.070312;;;20.650000;31.231445
77517;BME280;66628;53.946;27.634;2023-01-23T03:56:16;100790.742188;;;20.660000;31.243164
77517;BME280;66628;53.946;27.634;2023-01-23T03:57:16;100791.906250;;;20.660000;31.243164
77517;BME280;66628;53.946;27.634;2023-01-23T03:58:16;100790.742188;;;20.650000;31.231445
77517;BME280;66628;53.946;27.634;2023-01-23T03:59:16;100793.835938;;;20.650000;31.231445
77517;BME280;66628;53.946;27.634;2023-01-23T04:00:16;100795.359375;;;20.650000;31.231445
77517;BME280;66628;53.946;27.634;2023-01-23T04:01:16;100795.234375;;;20.660000;31.322266
77517;BME280;66628;53.946;27.634;2023-01-23T04:02:16;100797.453125;;;20.650000;31.299805
77517;BME280;66628;53.946;27.634;2023-01-23T04:03:16;100793.312500;;;20.660000;31.243164
77517;BME280;66628;53.946;27.634;2023-01-23T04:04:16;100796.195312;;;20.660000;31.266602
77517;BME280;66628;53.946;27.634;2023-01-23T04:05:16;100800.195312;;;20.660000;31.243164
77517;BME280;66628;53.946;27.634;2023-01-23T04:06:17;100796.546875;;;20.670000;31.245117
77517;BME280;66628;53.946;27.634;2023-01-23T04:07:16;100796.375000;;;20.670000;31.245117
77517;BME280;66628;53.946;27.634;2023-01-23T04:08:16;100797.015625;;;20.670000;31.356445
77517;BME280;66628;53.946;27.634;2023-01-23T04:09:16;100799.226562;;;20.670000;31.245117
77517;BME280;66628;53.946;27.634;2023-01-23T04:10:16;100798.234375;;;20.670000;31.266602
77517;BME280;66628;53.946;27.634;2023-01-23T04:11:16;100798.179688;;;20.670000;31.356445
77517;BME280;66628;53.946;27.634;2023-01-23T04:12:16;100801.453125;;;20.670000;31.378906
77517;BME280;66628;53.946;27.634;2023-01-23T04:13:16;100799.875000;;;20.660000;31.311523
77517;BME280;66628;53.946;27.634;2023-01-23T04:14:16;100803.843750;;;20.670000;31.356445
77517;BME280;66628;53.946;27.634;2023-01-23T04:15:16;100800.101562;;;20.680000;31.401367
77517;BME280;66628;53.946;27.634;2023-01-23T04:16:16;100805.359375;;;20.680000;31.401367
77517;BME280;66628;53.946;27.634;2023-01-23T04:17:16;100805.382812;;;20.680000;31.559570
77517;BME280;66628;53.946;27.634;2023-01-23T04:18:16;100805.703125;;;20.680000;31.468750
77517;BME280;66628;53.946;27.634;2023-01-23T04:19:16;100809.554688;;;20.680000;31.603516
77517;BME280;66628;53.946;27.634;2023-01-23T04:20:16;100807.812500;;;20.680000;31.625977
77517;BME280;66628;53.946;27.634;2023-01-23T04:21:16;100809.796875;;;20.670000;31.536133
77517;BME280;66628;53.946;27.634;2023-01-23T04:22:16;100810.203125;;;20.670000;31.570312
77517;BME280;66628;53.946;27.634;2023-01-23T04:23:16;100812.421875;;;20.670000;31.625977
77517;BME280;66628;53.946;27.634;2023-01-23T04:24:16;100810.437500;;;20.680000;31.625977
77517;BME280;66628;53.946;27.634;2023-01-23T04:25:16;100813.351562;;;20.680000;31.603516
77517;BME280;66628;53.946;27.634;2023-01-23T04:26:16;100810.437500;;;20.670000;31.636719
77517;BME280;66628;53.946;27.634;2023-01-23T04:27:16;100807.250000;;;20.690001;31.616211
77517;BME280;66628;53.946;27.634;2023-01-23T04:28:16;100807.718750;;;20.680000;31.604492
77517;BME280;66628;53.946;27.634;2023-01-23T04:29:16;100809.234375;;;20.690001;31.626953
77517;BME280;66628;53.946;27.634;2023-01-23T04:30:16;100811.390625;;;20.690001;31.626953
77517;BME280;66628;53.946;27.634;2023-01-23T04:31:16;100811.687500;;;20.690001;31.671875
77517;BME280;66628;53.946;27.634;2023-01-23T04:32:16;100816.234375;;;20.700001;31.661133
77517;BME280;66628;53.946;27.634;2023-01-23T04:33:17;100811.859375;;;20.700001;31.671875
77517;BME280;66628;53.946;27.634;2023-01-23T04:34:16;100818.101562;;;20.700001;31.683594
77517;BME280;66628;53.946;27.634;2023-01-23T04:35:16;100819.328125;;;20.690001;31.604492
77517;BME280;66628;53.946;27.634;2023-01-23T04:36:16;100819.796875;;;20.690001;31.503906
77517;BME280;66628;53.946;27.634;2023-01-23T04:37:16;100815.828125;;;20.700001;31.504883
77517;BME280;66628;53.946;27.634;2023-01-23T04:38:16;100817.343750;;;20.700001;31.493164